createdAt,value
2018-07-31T00:00:17.753Z,7.60
2018-07-31T00:02:46.971Z,8.13
2018-07-31T00:05:16.212Z,7.70
2018-07-31T00:07:45.032Z,7.27
2018-07-31T00:10:14.103Z,7.90
2018-07-31T00:12:42.929Z,7.67
2018-07-31T00:15:12.649Z,7.57
2018-07-31T00:17:41.483Z,7.97
2018-07-31T00:20:10.736Z,7.60
2018-07-31T00:22:39.790Z,8.47
2018-07-31T00:25:08.960Z,7.83
2018-07-31T00:27:38.063Z,8.13
2018-07-31T00:30:08.272Z,8.00
2018-07-31T00:32:38.004Z,8.10
2018-07-31T00:35:07.817Z,8.10
2018-07-31T00:37:36.972Z,7.80
2018-07-31T00:40:06.628Z,7.23
2018-07-31T00:42:35.795Z,7.70
2018-07-31T00:45:05.420Z,7.50
2018-07-31T00:47:34.620Z,7.43
2018-07-31T00:50:03.449Z,7.80
2018-07-31T00:52:32.836Z,7.37
2018-07-31T00:55:01.657Z,7.70
2018-07-31T00:57:31.184Z,7.70
2018-07-31T01:00:00.018Z,7.73
2018-07-31T01:02:29.372Z,7.23
2018-07-31T01:04:59.058Z,7.90
2018-07-31T01:07:27.877Z,7.53
2018-07-31T01:09:56.685Z,7.23
2018-07-31T01:12:29.644Z,7.40
2018-07-31T01:14:58.825Z,7.60
2018-07-31T01:17:28.077Z,7.23
2018-07-31T01:19:56.912Z,7.90
2018-07-31T01:22:25.768Z,7.13
2018-07-31T01:24:54.584Z,7.67
2018-07-31T01:27:23.483Z,7.40
2018-07-31T01:29:52.995Z,7.00
2018-07-31T01:32:22.131Z,7.23
2018-07-31T01:34:51.345Z,7.63
2018-07-31T01:37:20.734Z,7.03
2018-07-31T01:39:49.592Z,7.60
2018-07-31T01:42:18.812Z,7.33
2018-07-31T01:44:48.653Z,7.27
2018-07-31T01:47:17.512Z,8.17
2018-07-31T01:49:46.784Z,7.53
2018-07-31T01:52:16.220Z,7.23
2018-07-31T01:54:45.299Z,7.40
2018-07-31T01:57:14.153Z,7.60
2018-07-31T01:59:43.234Z,7.50
2018-07-31T02:02:12.394Z,7.73
2018-07-31T02:04:41.330Z,8.07
2018-07-31T02:07:10.789Z,7.57
2018-07-31T02:09:39.970Z,7.80
2018-07-31T02:12:08.893Z,7.27
2018-07-31T02:14:38.416Z,7.47
2018-07-31T02:17:07.456Z,6.90
2018-07-31T02:19:36.687Z,7.70
2018-07-31T02:22:06.034Z,7.30
2018-07-31T02:24:35.182Z,7.83
2018-07-31T02:27:04.375Z,7.27
2018-07-31T02:29:38.780Z,7.33
2018-07-31T02:32:08.050Z,7.50
2018-07-31T02:34:37.203Z,7.10
2018-07-31T02:37:06.691Z,7.80
2018-07-31T02:39:36.787Z,7.67
2018-07-31T02:42:05.948Z,7.13
2018-07-31T02:44:35.325Z,7.43
2018-07-31T02:47:05.411Z,7.13
2018-07-31T02:49:34.256Z,7.23
2018-07-31T02:52:03.737Z,6.97
2018-07-31T02:54:32.878Z,7.30
2018-07-31T02:57:03.669Z,7.13
2018-07-31T02:59:32.661Z,7.53
2018-07-31T03:02:01.613Z,7.03
2018-07-31T03:04:31.387Z,7.20
2018-07-31T03:07:00.305Z,7.03
2018-07-31T03:09:29.214Z,7.30
2018-07-31T03:11:58.092Z,7.47
2018-07-31T03:14:27.243Z,7.60
2018-07-31T03:16:56.500Z,7.60
2018-07-31T03:19:25.420Z,7.87
2018-07-31T03:21:55.270Z,7.20
2018-07-31T03:24:24.209Z,6.93
2018-07-31T03:26:53.923Z,7.60
2018-07-31T03:29:25.074Z,7.00
2018-07-31T03:31:54.921Z,7.30
2018-07-31T03:34:24.396Z,7.30
2018-07-31T03:36:53.946Z,7.77
2018-07-31T03:39:23.098Z,7.50
2018-07-31T03:41:52.016Z,7.60
2018-07-31T03:44:21.241Z,7.20
2018-07-31T03:46:50.773Z,7.50
2018-07-31T03:49:19.812Z,7.17
2018-07-31T03:51:48.856Z,7.20
2018-07-31T03:54:17.723Z,7.73
2018-07-31T03:56:46.756Z,7.60
2018-07-31T03:59:15.883Z,6.77
2018-07-31T04:01:45.215Z,7.00
2018-07-31T04:04:24.648Z,6.90
2018-07-31T04:06:53.483Z,7.37
2018-07-31T04:09:22.312Z,6.87
2018-07-31T04:11:51.497Z,7.37
2018-07-31T04:17:17.747Z,7.23
2018-07-31T04:19:46.640Z,7.50
2018-07-31T04:22:15.618Z,7.23
2018-07-31T04:24:44.754Z,7.10
2018-07-31T04:27:13.585Z,7.57
2018-07-31T04:29:50.882Z,7.87
2018-07-31T04:32:20.388Z,7.73
2018-07-31T04:34:49.209Z,7.77
2018-07-31T04:37:18.587Z,7.63
2018-07-31T04:39:47.630Z,7.87
2018-07-31T04:42:16.502Z,7.60
2018-07-31T04:44:45.839Z,7.23
2018-07-31T04:47:15.056Z,7.37
2018-07-31T04:49:44.261Z,7.63
2018-07-31T04:52:13.312Z,7.30
2018-07-31T04:54:42.440Z,7.43
2018-07-31T04:57:11.276Z,7.50
2018-07-31T04:59:40.741Z,7.60
2018-07-31T05:02:12.050Z,7.50
2018-07-31T05:04:45.708Z,7.67
2018-07-31T05:07:21.207Z,7.40
2018-07-31T05:09:50.429Z,7.37
2018-07-31T05:12:28.403Z,7.73
2018-07-31T05:14:57.386Z,7.80
2018-07-31T05:17:32.914Z,7.17
2018-07-31T05:20:04.297Z,7.77
2018-07-31T05:25:21.944Z,7.00
2018-07-31T05:27:56.440Z,7.03
2018-07-31T05:30:25.441Z,7.47
2018-07-31T05:32:54.938Z,7.33
2018-07-31T05:35:24.791Z,7.47
2018-07-31T05:37:54.084Z,7.87
2018-07-31T05:40:23.239Z,6.90
2018-07-31T05:42:52.365Z,7.00
2018-07-31T05:45:21.409Z,6.87
2018-07-31T05:47:50.703Z,7.23
2018-07-31T05:50:20.379Z,7.00
2018-07-31T05:52:49.746Z,7.13
2018-07-31T05:55:19.559Z,6.87
2018-07-31T05:57:49.238Z,6.87
2018-07-31T06:00:18.982Z,6.47
2018-07-31T06:02:48.056Z,6.87
2018-07-31T06:05:17.107Z,6.63
2018-07-31T06:07:46.026Z,7.13
2018-07-31T06:10:15.290Z,6.40
2018-07-31T06:12:44.663Z,6.90
2018-07-31T06:15:13.615Z,7.00
2018-07-31T06:17:43.103Z,6.67
2018-07-31T06:20:14.379Z,6.40
2018-07-31T06:22:44.766Z,6.70
2018-07-31T06:25:15.752Z,6.43
2018-07-31T06:27:47.286Z,6.33
2018-07-31T06:30:17.978Z,6.43
2018-07-31T06:32:47.229Z,6.50
2018-07-31T06:35:16.780Z,6.17
2018-07-31T06:37:46.016Z,6.80
2018-07-31T06:40:15.232Z,6.80
2018-07-31T06:42:44.705Z,7.07
2018-07-31T06:45:14.014Z,6.70
2018-07-31T06:47:43.279Z,6.30
2018-07-31T06:50:12.773Z,6.07
2018-07-31T06:52:42.020Z,6.40
2018-07-31T06:55:11.833Z,6.67
2018-07-31T06:57:41.745Z,5.97
2018-07-31T07:00:11.493Z,6.30
2018-07-31T07:02:41.311Z,6.20
2018-07-31T07:05:11.025Z,5.60
2018-07-31T07:07:40.586Z,7.03
2018-07-31T07:10:09.994Z,5.80
2018-07-31T07:12:39.226Z,6.60
2018-07-31T07:15:10.387Z,5.80
2018-07-31T07:17:40.025Z,5.90
2018-07-31T07:20:09.303Z,5.90
2018-07-31T07:25:47.423Z,5.77
2018-07-31T07:28:53.835Z,5.67
2018-07-31T07:31:23.783Z,6.00
2018-07-31T07:33:55.359Z,5.83
2018-07-31T07:36:25.805Z,5.90
2018-07-31T07:38:54.872Z,5.97
2018-07-31T07:41:24.322Z,5.90
2018-07-31T07:43:53.344Z,5.90
2018-07-31T07:46:25.251Z,6.10
2018-07-31T07:48:55.077Z,5.67
2018-07-31T07:51:24.223Z,5.50
2018-07-31T07:53:53.459Z,5.87
2018-07-31T07:56:23.812Z,6.00
2018-07-31T07:58:53.196Z,6.00
2018-07-31T08:01:22.747Z,5.30
2018-07-31T08:03:52.338Z,5.50
2018-07-31T08:06:21.911Z,5.60
2018-07-31T08:08:52.060Z,5.50
2018-07-31T08:11:21.269Z,5.87
2018-07-31T08:13:50.562Z,6.50
2018-07-31T08:16:20.232Z,6.10
2018-07-31T08:18:49.261Z,5.90
2018-07-31T08:21:18.605Z,5.53
2018-07-31T08:23:48.188Z,6.37
2018-07-31T08:26:17.509Z,5.60
2018-07-31T08:28:46.689Z,5.97
2018-07-31T08:31:19.336Z,6.10
2018-07-31T08:33:48.949Z,6.63
2018-07-31T08:36:19.645Z,6.23
2018-07-31T08:38:50.772Z,6.33
2018-07-31T08:41:19.725Z,6.20
2018-07-31T08:43:48.793Z,6.43
2018-07-31T08:46:17.741Z,6.40
2018-07-31T08:48:46.619Z,5.97
2018-07-31T08:51:15.905Z,6.10
2018-07-31T08:53:45.034Z,5.93
2018-07-31T08:56:14.856Z,5.70
2018-07-31T08:58:44.618Z,5.60
2018-07-31T09:01:13.754Z,5.83
2018-07-31T09:03:42.853Z,5.30
2018-07-31T09:06:12.446Z,5.73
2018-07-31T09:08:41.515Z,5.67
2018-07-31T09:11:12.222Z,5.77
2018-07-31T09:13:41.779Z,4.97
2018-07-31T09:16:11.257Z,5.67
2018-07-31T09:18:41.415Z,5.73
2018-07-31T09:21:10.978Z,5.73
2018-07-31T09:23:40.175Z,5.67
2018-07-31T09:26:10.020Z,5.33
2018-07-31T09:28:39.294Z,5.13
2018-07-31T09:31:14.201Z,5.63
2018-07-31T09:33:44.338Z,4.90
2018-07-31T09:36:14.846Z,4.40
2018-07-31T09:38:45.981Z,4.70
2018-07-31T09:41:15.776Z,4.67
2018-07-31T09:43:46.644Z,4.60
2018-07-31T09:48:57.483Z,4.53
2018-07-31T09:51:32.165Z,5.07
2018-07-31T09:54:20.581Z,5.03
2018-07-31T09:57:13.612Z,4.70
2018-07-31T10:00:04.670Z,4.50
2018-07-31T10:02:35.005Z,4.73
2018-07-31T10:05:04.508Z,4.80
2018-07-31T10:07:35.067Z,4.60
2018-07-31T10:10:04.354Z,4.53
2018-07-31T10:12:48.902Z,4.27
2018-07-31T10:15:29.672Z,4.90
2018-07-31T10:17:58.952Z,4.23
2018-07-31T10:20:28.485Z,4.60
2018-07-31T10:23:00.055Z,4.37
2018-07-31T10:25:32.854Z,4.00
2018-07-31T10:28:02.460Z,4.20
2018-07-31T10:30:31.678Z,3.63
2018-07-31T10:33:01.451Z,4.30
2018-07-31T10:35:30.405Z,4.03
2018-07-31T10:38:01.090Z,3.77
2018-07-31T10:40:30.411Z,3.63
2018-07-31T10:42:59.430Z,3.97
2018-07-31T10:45:28.645Z,4.00
2018-07-31T10:47:57.586Z,4.27
2018-07-31T10:50:26.875Z,4.70
2018-07-31T10:52:55.797Z,4.17
2018-07-31T10:55:25.146Z,3.90
2018-07-31T10:57:54.050Z,3.60
2018-07-31T11:00:23.261Z,3.90
2018-07-31T11:02:52.476Z,3.77
2018-07-31T11:05:21.762Z,3.90
2018-07-31T11:07:50.736Z,4.03
2018-07-31T11:10:19.893Z,3.50
2018-07-31T11:12:49.068Z,3.90
2018-07-31T11:15:18.504Z,4.00
2018-07-31T11:17:47.865Z,3.73
2018-07-31T11:20:17.434Z,3.83
2018-07-31T11:22:46.908Z,3.87
2018-07-31T11:25:16.053Z,3.70
2018-07-31T11:27:46.268Z,3.73
2018-07-31T11:30:16.268Z,3.60
2018-07-31T11:32:45.759Z,3.43
2018-07-31T11:35:15.005Z,3.80
2018-07-31T11:37:44.200Z,3.70
2018-07-31T11:40:13.274Z,3.67
2018-07-31T11:42:42.385Z,3.50
2018-07-31T11:45:11.546Z,3.70
2018-07-31T11:47:40.876Z,3.37
2018-07-31T11:50:10.111Z,3.30
2018-07-31T11:52:39.645Z,4.00
2018-07-31T11:55:08.531Z,3.77
2018-07-31T11:57:37.847Z,3.80
2018-07-31T12:00:09.725Z,3.63
2018-07-31T12:02:38.949Z,3.90
2018-07-31T12:05:08.861Z,3.90
2018-07-31T12:07:37.825Z,3.47
2018-07-31T12:10:07.421Z,3.90
2018-07-31T12:12:37.572Z,3.70
2018-07-31T12:15:07.157Z,3.43
2018-07-31T12:17:37.539Z,3.70
2018-07-31T12:20:07.068Z,3.57
2018-07-31T12:22:36.574Z,3.20
2018-07-31T12:25:06.693Z,3.30
2018-07-31T12:27:36.305Z,3.50
2018-07-31T12:30:10.647Z,4.03
2018-07-31T12:32:40.943Z,3.57
2018-07-31T12:35:11.072Z,3.27
2018-07-31T12:37:40.001Z,3.60
2018-07-31T12:40:09.521Z,4.10
2018-07-31T12:42:38.473Z,3.40
2018-07-31T12:45:08.336Z,3.73
2018-07-31T12:47:37.837Z,4.10
2018-07-31T12:50:07.120Z,3.50
2018-07-31T12:52:36.454Z,3.87
2018-07-31T12:55:05.582Z,4.40
2018-07-31T12:57:35.057Z,4.13
2018-07-31T13:00:05.296Z,4.13
2018-07-31T13:02:35.821Z,4.07
2018-07-31T13:05:06.148Z,4.00
2018-07-31T13:07:36.269Z,3.97
2018-07-31T13:10:06.852Z,4.00
2018-07-31T13:12:36.611Z,4.40
2018-07-31T13:15:06.372Z,4.13
2018-07-31T13:17:35.790Z,3.93
2018-07-31T13:20:08.983Z,3.77
2018-07-31T13:22:38.082Z,4.10
2018-07-31T13:25:07.495Z,3.90
2018-07-31T13:27:37.276Z,3.67
2018-07-31T13:30:07.481Z,3.90
2018-07-31T13:32:41.436Z,3.70
2018-07-31T13:35:10.932Z,3.60
2018-07-31T13:37:40.618Z,4.03
2018-07-31T13:40:10.235Z,3.40
2018-07-31T13:42:39.609Z,3.80
2018-07-31T13:45:09.195Z,3.63
2018-07-31T13:47:38.584Z,3.83
2018-07-31T13:50:12.900Z,4.20
2018-07-31T13:52:46.324Z,3.90
2018-07-31T13:55:17.602Z,4.07
2018-07-31T13:57:48.583Z,3.60
2018-07-31T14:00:19.369Z,3.67
2018-07-31T14:02:48.465Z,4.00
2018-07-31T14:05:18.380Z,3.70
2018-07-31T14:07:47.679Z,3.90
2018-07-31T14:10:16.944Z,3.70
2018-07-31T14:12:46.246Z,3.33
2018-07-31T14:15:25.857Z,3.47
2018-07-31T14:17:55.509Z,3.70
2018-07-31T14:20:29.857Z,3.70
2018-07-31T14:23:01.846Z,3.17
2018-07-31T14:25:32.762Z,3.37
2018-07-31T14:28:03.011Z,3.50
2018-07-31T14:30:32.391Z,3.50
2018-07-31T14:33:02.510Z,3.20
2018-07-31T14:35:33.332Z,3.57
2018-07-31T14:38:03.374Z,3.60
2018-07-31T14:40:41.136Z,3.00
2018-07-31T14:43:11.671Z,3.33
2018-07-31T14:45:44.154Z,3.70
2018-07-31T14:48:13.639Z,2.87
2018-07-31T14:50:43.957Z,3.37
2018-07-31T14:53:21.647Z,3.00
2018-07-31T14:55:52.493Z,3.17
2018-07-31T14:58:27.373Z,3.10
2018-07-31T15:00:59.335Z,3.40
2018-07-31T15:03:29.659Z,3.10
2018-07-31T15:05:59.460Z,2.90
2018-07-31T15:08:30.673Z,3.10
2018-07-31T15:11:00.391Z,3.30
2018-07-31T15:13:29.935Z,3.10
2018-07-31T15:16:02.232Z,3.10
2018-07-31T15:18:50.106Z,2.80
2018-07-31T15:22:31.158Z,3.27
2018-07-31T15:25:08.895Z,3.10
2018-07-31T15:27:45.824Z,3.00
2018-07-31T15:30:15.768Z,3.23
2018-07-31T15:32:45.879Z,2.83
2018-07-31T15:35:16.566Z,3.53
2018-07-31T15:37:45.931Z,3.20
2018-07-31T15:40:15.248Z,2.73
2018-07-31T15:42:44.321Z,3.00
2018-07-31T15:45:13.634Z,2.90
2018-07-31T15:47:42.857Z,3.03
2018-07-31T15:50:11.764Z,3.13
2018-07-31T15:52:40.607Z,3.20
2018-07-31T15:55:09.984Z,3.00
2018-07-31T15:57:42.916Z,3.00
2018-07-31T16:00:12.767Z,3.20
2018-07-31T16:02:44.427Z,2.90
2018-07-31T16:05:15.592Z,2.90
2018-07-31T16:07:45.048Z,3.00
2018-07-31T16:10:14.548Z,2.87
2018-07-31T16:12:43.504Z,3.00
2018-07-31T16:15:17.669Z,3.27
2018-07-31T16:17:46.700Z,3.20
2018-07-31T16:20:15.588Z,3.10
2018-07-31T16:22:44.840Z,3.30
2018-07-31T16:25:14.356Z,3.10
2018-07-31T16:27:43.340Z,3.00
2018-07-31T16:30:12.227Z,2.90
2018-07-31T16:32:43.286Z,2.97
2018-07-31T16:35:12.805Z,3.30
2018-07-31T16:37:41.685Z,2.90
2018-07-31T16:40:10.650Z,3.20
2018-07-31T16:42:40.281Z,3.13
2018-07-31T16:45:10.648Z,3.30
2018-07-31T16:47:39.833Z,2.93
2018-07-31T16:50:08.694Z,3.03
2018-07-31T16:52:37.927Z,3.00
2018-07-31T16:55:07.775Z,3.20
2018-07-31T16:57:36.684Z,2.97
2018-07-31T17:00:06.127Z,3.20
2018-07-31T17:02:34.980Z,3.20
2018-07-31T17:05:04.264Z,3.30
2018-07-31T17:07:33.230Z,3.10
2018-07-31T17:10:02.093Z,3.43
2018-07-31T17:12:31.049Z,3.20
2018-07-31T17:15:00.959Z,3.33
2018-07-31T17:17:39.272Z,2.93
2018-07-31T17:20:08.741Z,2.80
2018-07-31T17:22:38.034Z,3.00
2018-07-31T17:25:07.513Z,3.10
2018-07-31T17:27:36.468Z,3.30
2018-07-31T17:30:05.984Z,3.20
2018-07-31T17:32:35.037Z,3.10
2018-07-31T17:35:04.497Z,3.17
2018-07-31T17:37:34.243Z,3.67
2018-07-31T17:40:03.641Z,3.27
2018-07-31T17:42:32.624Z,3.20
2018-07-31T17:45:02.302Z,3.80
2018-07-31T17:47:32.229Z,3.43
2018-07-31T17:50:01.036Z,3.47
2018-07-31T17:52:30.432Z,4.10
2018-07-31T17:54:59.715Z,3.90
2018-07-31T17:57:29.218Z,3.90
2018-07-31T17:59:58.398Z,4.23
2018-07-31T18:02:27.728Z,4.03
2018-07-31T18:04:57.129Z,10.47
2018-07-31T18:07:25.971Z,8.20
2018-07-31T18:09:54.789Z,7.17
2018-07-31T18:12:24.417Z,6.50
2018-07-31T18:14:53.256Z,5.40
2018-07-31T18:17:22.640Z,7.87
2018-07-31T18:19:51.541Z,16.33
2018-07-31T18:22:20.424Z,41.17
2018-07-31T18:24:49.547Z,46.80
2018-07-31T18:27:18.628Z,51.23
2018-07-31T18:29:48.453Z,77.17
2018-07-31T18:32:17.292Z,58.63
2018-07-31T18:34:46.143Z,31.73
2018-07-31T18:37:15.696Z,21.00
2018-07-31T18:39:44.555Z,25.07
2018-07-31T18:42:13.781Z,24.07
2018-07-31T18:44:42.953Z,40.10
2018-07-31T18:47:11.941Z,48.00
2018-07-31T18:49:41.292Z,184.00
2018-07-31T18:52:10.146Z,188.60
2018-07-31T18:54:38.972Z,113.63
2018-07-31T18:57:08.160Z,87.50
2018-07-31T18:59:37.389Z,60.60
2018-07-31T19:02:06.428Z,56.87
2018-07-31T19:04:35.265Z,26.20
2018-07-31T19:07:04.461Z,6.30
2018-07-31T19:09:33.352Z,9.87
2018-07-31T19:12:02.852Z,27.23
2018-07-31T19:14:32.441Z,16.47
2018-07-31T19:17:01.716Z,10.27
2018-07-31T19:19:30.594Z,9.60
2018-07-31T19:21:59.450Z,7.83
2018-07-31T19:24:29.599Z,7.67
2018-07-31T19:26:58.417Z,6.90
2018-07-31T19:29:27.917Z,6.30
2018-07-31T19:31:57.243Z,9.10
2018-07-31T19:34:26.613Z,8.00
2018-07-31T19:36:55.766Z,9.10
2018-07-31T19:39:24.956Z,8.33
2018-07-31T19:41:54.091Z,9.53
2018-07-31T19:44:23.079Z,8.37
2018-07-31T19:46:51.919Z,9.97
2018-07-31T19:49:20.793Z,11.03
2018-07-31T19:51:49.837Z,10.43
2018-07-31T19:54:19.004Z,13.73
2018-07-31T19:56:48.416Z,11.20
2018-07-31T19:59:17.240Z,13.50
2018-07-31T20:01:46.400Z,12.27
2018-07-31T20:04:20.136Z,9.33
2018-07-31T20:06:49.858Z,9.30
2018-07-31T20:09:25.951Z,8.00
2018-07-31T20:11:56.044Z,10.03
2018-07-31T20:14:25.352Z,13.40
2018-07-31T20:16:54.812Z,10.77
2018-07-31T20:19:24.000Z,9.30
2018-07-31T20:21:52.995Z,8.17
2018-07-31T20:24:22.207Z,7.63
2018-07-31T20:26:51.009Z,7.83
2018-07-31T20:29:20.730Z,7.47
2018-07-31T20:31:49.667Z,7.17
2018-07-31T20:34:18.508Z,7.40
2018-07-31T20:36:47.600Z,7.10
2018-07-31T20:39:16.470Z,7.37
2018-07-31T20:41:45.744Z,7.00
2018-07-31T20:44:14.742Z,9.20
2018-07-31T20:46:43.780Z,37.10
2018-07-31T20:49:12.735Z,46.67
2018-07-31T20:51:46.660Z,30.57
2018-07-31T20:54:28.641Z,16.80
2018-07-31T20:56:57.965Z,14.87
2018-07-31T20:59:27.085Z,10.83
2018-07-31T21:01:56.431Z,8.30
2018-07-31T21:04:25.793Z,8.13
2018-07-31T21:06:54.965Z,8.30
2018-07-31T21:09:24.084Z,7.73
2018-07-31T21:11:53.224Z,8.00
2018-07-31T21:14:22.230Z,7.77
2018-07-31T21:16:51.430Z,7.70
2018-07-31T21:19:20.676Z,8.00
2018-07-31T21:21:49.971Z,7.23
2018-07-31T21:24:19.108Z,7.07
2018-07-31T21:26:48.340Z,7.40
2018-07-31T21:29:17.496Z,7.40
2018-07-31T21:31:47.240Z,7.70
2018-07-31T21:34:16.530Z,7.67
2018-07-31T21:36:45.779Z,7.97
2018-07-31T21:39:15.678Z,7.70
2018-07-31T21:41:47.189Z,7.40
2018-07-31T21:44:17.069Z,7.63
2018-07-31T21:46:46.380Z,7.53
2018-07-31T21:49:17.682Z,7.23
2018-07-31T21:51:46.618Z,8.50
2018-07-31T21:54:15.614Z,8.30
2018-07-31T21:56:44.571Z,7.67
2018-07-31T21:59:13.858Z,7.57
2018-07-31T22:01:43.038Z,7.50
2018-07-31T22:04:12.424Z,9.80
2018-07-31T22:06:41.377Z,8.10
2018-07-31T22:09:10.833Z,8.27
2018-07-31T22:11:40.295Z,8.17
2018-07-31T22:14:09.607Z,7.90
2018-07-31T22:16:38.929Z,8.17
2018-07-31T22:19:07.875Z,7.57
2018-07-31T22:21:37.553Z,7.80
2018-07-31T22:24:06.542Z,7.50
2018-07-31T22:26:35.455Z,8.13
2018-07-31T22:29:04.765Z,7.60
2018-07-31T22:31:33.651Z,7.60
2018-07-31T22:34:02.816Z,7.70
2018-07-31T22:36:32.117Z,7.67
2018-07-31T22:39:01.889Z,7.50
2018-07-31T22:41:30.950Z,7.10
2018-07-31T22:44:00.181Z,7.47
2018-07-31T22:46:29.369Z,7.40
2018-07-31T22:48:58.549Z,7.60
2018-07-31T22:51:28.522Z,7.43
2018-07-31T22:53:58.539Z,7.77
2018-07-31T22:56:28.070Z,7.50
2018-07-31T22:58:57.818Z,7.13
2018-07-31T23:01:26.987Z,7.80
2018-07-31T23:03:57.018Z,7.93
2018-07-31T23:06:34.430Z,7.50
2018-07-31T23:09:03.802Z,7.50
2018-07-31T23:11:33.069Z,7.73
2018-07-31T23:14:02.227Z,7.37
2018-07-31T23:16:32.269Z,7.23
2018-07-31T23:19:01.338Z,7.77
2018-07-31T23:21:30.547Z,7.07
2018-07-31T23:23:59.792Z,7.10
2018-07-31T23:26:28.988Z,7.50
2018-07-31T23:28:58.353Z,7.10
2018-07-31T23:31:27.614Z,7.27
2018-07-31T23:33:56.925Z,6.80
2018-07-31T23:36:29.891Z,7.03
2018-07-31T23:39:01.631Z,7.43
2018-07-31T23:41:31.567Z,7.03
2018-07-31T23:44:00.769Z,7.00
2018-07-31T23:46:30.753Z,7.20
2018-07-31T23:49:00.113Z,6.77
2018-07-31T23:51:29.982Z,7.00
2018-07-31T23:53:59.169Z,6.90
2018-07-31T23:56:28.745Z,6.90
2018-07-31T23:58:57.897Z,6.60
